Time;durP1;ratioP1;P1;durP2;ratioP2;P2;SDS_P1;SDS_P2;PMS_P1;PMS_P2;Temp;Humidity;BMP_temperature;BMP_pressure;BME280_temperature;BME280_humidity;BME280_pressure;Samples;Min_cycle;Max_cycle;Signal;HPM_P1;HPM_P2
2023/09/21 00:03:34;;;;;;;5.38;3.10;;;;;;;17.57;61.47;100310.63;15662141;28;20049;-47
2023/09/21 00:11:10;;;;;;;6.72;3.30;;;;;;;17.43;62.34;100304.06;15672260;28;20124;-49
2023/09/21 00:18:44;;;;;;;6.78;3.13;;;;;;;17.41;61.96;100309.75;15670159;28;20482;-47
2023/09/21 00:26:18;;;;;;;6.18;2.88;;;;;;;17.16;62.33;100302.34;15686398;28;20050;-47
2023/09/21 00:33:57;;;;;;;4.88;3.00;;;;;;;17.52;61.51;100300.56;15679397;28;20456;-46
2023/09/21 00:41:33;;;;;;;7.93;3.20;;;;;;;17.58;61.40;100296.00;15668588;28;20124;-46
2023/09/21 00:49:09;;;;;;;6.28;3.03;;;;;;;17.42;61.44;100288.88;15684098;28;20037;-48
2023/09/21 00:56:48;;;;;;;6.90;2.75;;;;;;;17.17;62.14;100282.28;15683681;28;20083;-47
2023/09/21 01:04:22;;;;;;;5.40;3.17;;;;;;;17.45;61.00;100272.06;15674534;28;20060;-51
2023/09/21 01:11:59;;;;;;;;;;;;;;;17.32;62.02;100267.97;15667242;28;20482;-47
2023/09/21 01:19:32;;;;;;;5.57;2.95;;;;;;;16.80;63.50;100263.41;15676107;28;19920;-51
2023/09/21 01:27:09;;;;;;;6.15;3.03;;;;;;;16.71;63.71;100264.94;15682678;28;20094;-46
2023/09/21 01:34:46;;;;;;;5.45;3.20;;;;;;;16.66;63.69;100259.50;15676458;28;20052;-50
2023/09/21 01:42:23;;;;;;;6.70;2.95;;;;;;;16.67;63.46;100244.84;15682155;28;20041;-50
2023/09/21 01:49:56;;;;;;;8.70;3.30;;;;;;;16.29;64.83;100250.31;15681738;28;20509;-49
2023/09/21 01:57:30;;;;;;;6.82;3.10;;;;;;;16.33;64.79;100246.00;15680654;28;20068;-45
2023/09/21 02:05:04;;;;;;;9.23;3.17;;;;;;;16.32;65.11;100238.16;15673630;28;20067;-48
2023/09/21 02:12:40;;;;;;;5.38;3.35;;;;;;;16.18;65.03;100226.97;15662855;28;20102;-47
2023/09/21 02:20:14;;;;;;;6.82;3.58;;;;;;;16.06;65.22;100216.28;15652062;28;20041;-47
2023/09/21 02:27:50;;;;;;;7.80;3.80;;;;;;;15.96;65.74;100223.53;15678573;28;20098;-48
2023/09/21 02:35:27;;;;;;;6.30;3.53;;;;;;;15.99;65.48;100207.59;15678150;28;20143;-50
2023/09/21 02:43:02;;;;;;;5.13;3.65;;;;;;;15.81;65.50;100205.28;15683096;23;20048;-40
2023/09/21 02:50:36;;;;;;;6.65;3.65;;;;;;;15.90;65.62;100208.28;15687844;28;20070;-42
2023/09/21 02:58:12;;;;;;;5.78;3.80;;;;;;;15.76;65.99;100197.09;15716086;28;20526;-47
2023/09/21 03:06:03;;;;;;;;;;;;;;;15.37;66.78;100186.44;15724639;28;20040;-42
2023/09/21 03:13:38;;;;;;;6.65;3.67;;;;;;;15.49;66.33;100180.88;15708902;28;20032;-44
2023/09/21 03:21:15;;;;;;;6.15;3.83;;;;;;;15.43;66.06;100171.88;15715959;28;20058;-43
2023/09/21 03:28:49;;;;;;;6.35;3.85;;;;;;;15.09;67.22;100167.75;15715172;28;20434;-46
2023/09/21 03:36:23;;;;;;;6.70;4.13;;;;;;;14.93;67.68;100172.19;15699006;28;20052;-43
2023/09/21 03:43:58;;;;;;;5.63;4.00;;;;;;;14.76;68.12;100161.44;15714999;28;20036;-43
2023/09/21 03:51:33;;;;;;;6.65;4.05;;;;;;;14.71;67.85;100159.50;15710654;28;20403;-43
2023/09/21 03:59:08;;;;;;;6.72;3.92;;;;;;;14.55;68.40;100146.88;15723291;28;20381;-41
2023/09/21 04:06:42;;;;;;;7.88;3.60;;;;;;;14.52;68.13;100137.38;15710099;28;20511;-45
2023/09/21 04:14:17;;;;;;;5.80;3.65;;;;;;;14.49;67.85;100132.47;15709023;28;20055;-42
2023/09/21 04:21:51;;;;;;;6.70;3.97;;;;;;;14.42;68.01;100122.91;15726110;28;20417;-43
2023/09/21 04:29:26;;;;;;;7.00;4.55;;;;;;;14.88;67.65;100124.31;15725239;28;20365;-44
2023/09/21 04:36:59;;;;;;;7.63;4.25;;;;;;;14.77;67.94;100127.94;15725296;28;20040;-43
2023/09/21 04:44:34;;;;;;;;;;;;;;;14.58;68.42;100122.06;15724423;28;20036;-42
2023/09/21 04:52:07;;;;;;;6.22;4.05;;;;;;;14.67;68.09;100120.53;15718844;28;19975;-43
2023/09/21 04:59:42;;;;;;;6.05;4.40;;;;;;;14.53;68.18;100114.69;15723507;28;20064;-48
2023/09/21 05:07:17;;;;;;;6.78;4.53;;;;;;;14.48;68.33;100111.94;15722556;28;20139;-46
2023/09/21 05:14:52;;;;;;;16.92;5.07;;;;;;;14.47;68.80;100109.47;15722665;28;20222;-42
2023/09/21 05:22:26;;;;;;;7.85;4.80;;;;;;;14.54;68.60;100116.31;15739489;28;20483;-43
2023/09/21 05:30:01;;;;;;;7.53;4.60;;;;;;;14.74;68.83;100110.38;15723268;28;20043;-40
2023/09/21 05:37:35;;;;;;;8.30;4.70;;;;;;;14.95;68.07;100113.28;15740052;28;20188;-43
2023/09/21 05:45:10;;;;;;;8.25;4.60;;;;;;;14.93;68.26;100107.31;15721008;28;20048;-42
2023/09/21 05:52:43;;;;;;;6.40;4.65;;;;;;;15.03;68.74;100107.44;15738809;28;20045;-41
2023/09/21 06:00:18;;;;;;;7.35;5.18;;;;;;;15.13;68.76;100099.41;15738057;28;20468;-41
2023/09/21 06:07:53;;;;;;;10.02;4.93;;;;;;;15.17;68.66;100097.84;15736470;28;20045;-41
2023/09/21 06:15:27;;;;;;;9.45;6.05;;;;;;;15.51;68.25;100109.22;15736035;28;20109;-44
2023/09/21 06:23:01;;;;;;;7.68;5.53;;;;;;;15.84;68.51;100093.78;15734862;28;20093;-40
2023/09/21 06:30:35;;;;;;;8.57;5.15;;;;;;;16.14;67.65;100095.88;15736378;28;20075;-44
2023/09/21 06:38:09;;;;;;;8.05;5.22;;;;;;;16.86;65.85;100091.56;15737826;28;20405;-42
2023/09/21 06:45:44;;;;;;;13.90;5.07;;;;;;;17.47;63.41;100088.09;15718469;28;20519;-46
2023/09/21 06:53:17;;;;;;;8.57;4.53;;;;;;;18.54;61.08;100087.88;15731678;28;20424;-42
2023/09/21 07:00:52;;;;;;;8.25;4.57;;;;;;;18.64;61.06;100059.81;15714496;28;20093;-47
2023/09/21 07:08:26;;;;;;;4.95;3.33;;;;;;;19.57;58.09;100073.31;15714342;28;20044;-46
2023/09/21 07:16:01;;;;;;;8.00;3.80;;;;;;;20.37;56.24;100070.03;15732646;28;20049;-47
2023/09/21 07:23:34;;;;;;;7.97;2.92;;;;;;;20.63;54.75;100070.56;15714725;28;20044;-41
2023/09/21 07:31:09;;;;;;;4.95;3.03;;;;;;;20.92;53.74;100069.59;15732332;28;20052;-45
2023/09/21 07:38:42;;;;;;;5.93;2.95;;;;;;;21.30;52.38;100058.66;15732028;28;20515;-45
2023/09/21 07:46:17;;;;;;;6.72;3.20;;;;;;;21.51;52.56;100061.88;15733526;28;20088;-48
2023/09/21 07:53:53;;;;;;;7.05;2.88;;;;;;;21.77;51.64;100054.03;15733028;28;20041;-44
2023/09/21 08:01:27;;;;;;;5.18;2.80;;;;;;;22.53;49.61;100041.59;15707796;28;20140;-44
2023/09/21 08:09:00;;;;;;;5.75;3.10;;;;;;;22.89;49.65;100043.53;15731726;28;20051;-44
2023/09/21 08:16:37;;;;;;;5.43;2.75;;;;;;;23.21;48.64;100041.72;15732010;28;20059;-44
2023/09/21 08:24:10;;;;;;;4.70;2.70;;;;;;;23.68;47.98;100023.81;15722148;28;20130;-42
2023/09/21 08:31:46;;;;;;;6.45;2.75;;;;;;;24.43;46.57;100028.28;15730743;28;20143;-42
2023/09/21 08:39:19;;;;;;;2.67;2.40;;;;;;;23.99;46.02;100033.94;15718318;22;20067;-46
2023/09/21 08:46:54;;;;;;;6.53;2.70;;;;;;;24.09;46.41;100028.16;15622917;28;20045;-46
2023/09/21 08:54:30;;;;;;;4.75;2.60;;;;;;;24.54;45.91;100031.53;15618197;28;20519;-48
2023/09/21 09:02:04;;;;;;;4.53;2.42;;;;;;;25.59;44.12;100035.00;15560793;28;20053;-46
2023/09/21 09:09:39;;;;;;;4.22;2.63;;;;;;;24.55;45.30;100027.66;15559500;28;20489;-47
2023/09/21 09:17:15;;;;;;;7.85;2.78;;;;;;;25.65;44.35;100025.47;15560076;28;20396;-46
2023/09/21 09:24:48;;;;;;;5.07;3.00;;;;;;;26.52;42.61;100009.34;15558256;28;20084;-45
2023/09/21 09:32:35;;;;;;;4.40;2.78;;;;;;;26.72;41.57;100002.25;15560135;28;20578;-46
2023/09/21 09:40:18;;;;;;;4.82;2.85;;;;;;;26.85;42.12;99983.81;15558363;28;20092;-47
2023/09/21 09:47:56;;;;;;;6.88;2.67;;;;;;;27.46;40.68;99978.53;15543543;28;20104;-49
2023/09/21 09:55:31;;;;;;;7.13;2.55;;;;;;;27.55;41.17;99972.91;15556445;28;20374;-46
2023/09/21 10:03:08;;;;;;;6.85;2.80;;;;;;;28.22;39.44;99963.28;15599261;28;20045;-48
2023/09/21 10:10:46;;;;;;;3.35;2.40;;;;;;;28.55;38.20;99946.53;15565602;28;20038;-46
2023/09/21 10:18:35;;;;;;;5.70;2.20;;;;;;;28.91;38.72;99948.34;15540208;28;20486;-46
2023/09/21 10:26:11;;;;;;;3.90;2.22;;;;;;;28.73;37.23;99928.53;15558324;28;20056;-47
2023/09/21 10:34:05;;;;;;;5.82;2.10;;;;;;;29.34;36.54;99924.63;15587201;28;20049;-48
2023/09/21 10:41:42;;;;;;;4.88;1.92;;;;;;;29.29;35.44;99913.03;15564436;28;20054;-47
2023/09/21 10:49:19;;;;;;;2.03;1.80;;;;;;;29.19;36.84;99906.06;15556235;28;20046;-46
2023/09/21 10:56:53;;;;;;;4.82;1.70;;;;;;;29.06;36.32;99901.78;15555472;28;20050;-49
2023/09/21 11:04:29;;;;;;;2.95;1.67;;;;;;;29.50;34.79;99908.03;15555597;28;20072;-48
2023/09/21 11:12:03;;;;;;;3.60;1.50;;;;;;;28.75;34.67;99896.97;15554665;28;20038;-46
2023/09/21 11:19:38;;;;;;;2.42;1.40;;;;;;;29.55;33.36;99887.63;15554634;28;20495;-49
2023/09/21 11:27:15;;;;;;;3.92;1.58;;;;;;;29.43;33.65;99875.50;15555205;28;20042;-48
2023/09/21 11:34:59;;;;;;;3.35;1.52;;;;;;;30.52;32.52;99865.63;15554741;28;20418;-46
2023/09/21 11:42:34;;;;;;;4.00;1.40;;;;;;;30.26;32.70;99853.25;15554297;28;20480;-46
2023/09/21 11:50:18;;;;;;;2.83;1.15;;;;;;;30.39;32.18;99851.94;15553880;28;20392;-47
2023/09/21 11:57:52;;;;;;;6.32;1.50;;;;;;;30.07;32.44;99839.38;15553713;28;20133;-47
2023/09/21 12:05:31;;;;;;;2.97;1.52;;;;;;;29.65;33.95;99829.00;15553537;28;20058;-50
2023/09/21 12:13:04;;;;;;;2.78;1.48;;;;;;;31.16;30.43;99809.41;15535851;28;20463;-47
2023/09/21 12:20:44;;;;;;;2.75;1.40;;;;;;;30.96;30.42;99799.56;15560202;28;20479;-47
2023/09/21 12:28:19;;;;;;;2.03;1.42;;;;;;;30.74;31.25;99799.22;15563401;28;20050;-47
2023/09/21 12:35:54;;;;;;;6.82;1.67;;;;;;;30.76;31.20;99779.44;15563545;28;20132;-49
2023/09/21 12:43:29;;;;;;;3.08;1.25;;;;;;;31.41;29.17;99765.44;15562947;28;20074;-48
2023/09/21 12:51:04;;;;;;;3.28;1.40;;;;;;;30.93;29.36;99756.78;15545929;28;20046;-47
2023/09/21 12:58:38;;;;;;;2.75;1.40;;;;;;;31.71;28.29;99757.16;15562452;28;20391;-46
2023/09/21 13:06:13;;;;;;;3.78;1.58;;;;;;;31.29;28.50;99749.03;15561745;28;20042;-47
2023/09/21 13:13:47;;;;;;;4.85;1.50;;;;;;;31.90;27.68;99742.34;15561724;28;20050;-49
2023/09/21 13:21:21;;;;;;;3.75;1.30;;;;;;;31.60;27.79;99742.31;15542856;28;20049;-48
2023/09/21 13:28:55;;;;;;;4.72;1.40;;;;;;;31.48;25.90;99731.47;15560391;28;20120;-49
2023/09/21 13:36:30;;;;;;;3.03;1.50;;;;;;;30.68;27.45;99719.50;15560449;28;20064;-49
2023/09/21 13:44:04;;;;;;;1.80;1.50;;;;;;;30.36;28.16;99719.78;15559661;28;20046;-48
2023/09/21 13:51:38;;;;;;;3.55;1.40;;;;;;;30.18;28.51;99705.59;15558978;28;20069;-47
2023/09/21 13:59:11;;;;;;;4.47;1.42;;;;;;;30.45;28.74;99700.13;15558803;28;20042;-52
2023/09/21 14:06:46;;;;;;;3.83;1.50;;;;;;;29.53;29.90;99690.84;15558041;28;20080;-49
2023/09/21 14:14:20;;;;;;;5.60;1.55;;;;;;;29.78;30.00;99694.91;15557953;28;20109;-48
2023/09/21 14:21:55;;;;;;;3.50;1.42;;;;;;;29.14;30.22;99683.28;15555703;28;20069;-51
2023/09/21 14:29:28;;;;;;;8.00;1.50;;;;;;;29.32;31.35;99685.63;15557249;28;20064;-50
2023/09/21 14:37:05;;;;;;;4.75;1.50;;;;;;;29.43;31.85;99662.59;15556541;28;20045;-48
2023/09/21 14:44:39;;;;;;;7.65;1.50;;;;;;;29.02;33.61;99663.28;15617857;28;20116;-49
2023/09/21 14:52:14;;;;;;;4.97;1.50;;;;;;;29.52;33.60;99654.09;15617363;28;20069;-48
2023/09/21 14:59:47;;;;;;;4.45;1.70;;;;;;;28.88;35.15;99647.16;15584749;28;20049;-47
2023/09/21 15:07:22;;;;;;;4.90;1.40;;;;;;;29.20;35.39;99626.56;15538425;28;20561;-49
2023/09/21 15:14:55;;;;;;;3.72;1.60;;;;;;;29.15;34.80;99621.34;15555749;28;20069;-48
2023/09/21 15:22:29;;;;;;;5.43;2.17;;;;;;;28.51;36.59;99616.28;15553968;28;20042;-48
2023/09/21 15:30:04;;;;;;;6.53;1.90;;;;;;;28.61;37.15;99599.16;15553499;28;20505;-49
2023/09/21 15:37:40;;;;;;;9.40;2.08;;;;;;;28.40;37.40;99585.69;15553997;28;20125;-47
2023/09/21 15:45:18;;;;;;;5.88;2.00;;;;;;;28.28;38.13;99580.22;15536838;28;20407;-48
2023/09/21 15:52:54;;;;;;;6.60;2.05;;;;;;;28.18;38.50;99576.03;15558870;28;20046;-48
2023/09/21 16:00:27;;;;;;;8.73;2.08;;;;;;;28.31;38.91;99572.03;15564933;28;20304;-49
2023/09/21 16:08:05;;;;;;;5.15;2.10;;;;;;;28.40;38.96;99558.88;15547804;28;20041;-49
2023/09/21 16:15:39;;;;;;;8.68;2.28;;;;;;;27.69;40.64;99554.28;15565360;28;20518;-48
2023/09/21 16:23:12;;;;;;;6.93;2.30;;;;;;;27.69;40.55;99557.81;15565231;28;20562;-48
2023/09/21 16:30:46;;;;;;;8.70;3.13;;;;;;;27.19;42.26;99553.72;15546611;28;20128;-46
2023/09/21 16:38:20;;;;;;;6.15;2.58;;;;;;;26.54;43.41;99554.91;15546336;28;20046;-47
2023/09/21 16:45:55;;;;;;;8.38;3.00;;;;;;;26.43;43.38;99551.81;15563315;28;20045;-46
2023/09/21 16:53:29;;;;;;;13.05;3.38;;;;;;;26.30;43.58;99548.25;15553763;28;20050;-47
2023/09/21 17:01:02;;;;;;;5.88;2.92;;;;;;;25.95;43.03;99551.44;15562238;28;20042;-48
2023/09/21 17:08:36;;;;;;;9.88;2.90;;;;;;;25.94;42.97;99551.78;15561775;28;20403;-48
2023/09/21 17:16:09;;;;;;;10.40;3.03;;;;;;;25.55;43.64;99553.94;15561548;28;20101;-49
2023/09/21 17:23:45;;;;;;;6.68;3.38;;;;;;;25.62;43.48;99554.22;15561530;28;20125;-47
2023/09/21 17:31:20;;;;;;;9.75;3.28;;;;;;;25.55;43.91;99550.41;15560537;28;20081;-47
2023/09/21 17:38:55;;;;;;;7.05;3.15;;;;;;;25.27;44.50;99556.47;15560870;28;20049;-48
2023/09/21 17:46:28;;;;;;;7.72;3.20;;;;;;;25.53;44.12;99548.00;15559494;28;20180;-48
2023/09/21 17:54:06;;;;;;;15.13;3.70;;;;;;;25.05;45.75;99543.09;15559116;28;20590;-51
2023/09/21 18:01:39;;;;;;;7.28;3.28;;;;;;;24.86;46.25;99540.84;15558229;28;20042;-48
2023/09/21 18:09:13;;;;;;;13.05;3.95;;;;;;;25.07;46.25;99544.41;15558921;28;20042;-46
2023/09/21 18:16:48;;;;;;;8.02;3.67;;;;;;;24.85;47.10;99547.44;15541199;28;20038;-49
2023/09/21 18:24:24;;;;;;;13.15;4.45;;;;;;;24.86;47.08;99546.31;15557151;28;20495;-47
2023/09/21 18:31:58;;;;;;;7.40;3.92;;;;;;;24.64;47.53;99541.97;15556182;28;20082;-48
2023/09/21 18:39:36;;;;;;;9.48;4.22;;;;;;;24.54;48.00;99534.13;15556203;28;20072;-46
2023/09/21 18:47:09;;;;;;;7.75;4.22;;;;;;;24.35;48.30;99529.84;15557114;28;20446;-46
2023/09/21 18:54:45;;;;;;;8.00;4.13;;;;;;;24.36;48.33;99520.50;15557402;28;20088;-48
2023/09/21 19:02:19;;;;;;;8.52;4.22;;;;;;;23.97;49.30;99507.97;15555158;28;20049;-47
2023/09/21 19:09:54;;;;;;;9.75;4.45;;;;;;;23.95;50.01;99509.41;15554893;28;20050;-48
2023/09/21 19:17:30;;;;;;;6.45;4.18;;;;;;;23.49;51.39;99508.25;15554583;28;20076;-48
2023/09/21 19:25:05;;;;;;;11.02;4.95;;;;;;;23.37;51.63;99498.78;15553671;28;20034;-49
2023/09/21 19:32:38;;;;;;;8.52;5.00;;;;;;;22.99;52.83;99497.84;15566849;28;20105;-47
2023/09/21 19:40:13;;;;;;;8.70;4.93;;;;;;;22.79;53.63;99483.66;15570741;28;20076;-49
2023/09/21 19:47:46;;;;;;;8.63;5.65;;;;;;;22.92;53.06;99471.00;15569855;28;20067;-48
2023/09/21 19:55:21;;;;;;;11.15;5.57;;;;;;;22.62;53.89;99473.56;15573327;28;20398;-48
2023/09/21 20:02:55;;;;;;;10.80;6.00;;;;;;;22.73;53.50;99457.63;15553807;28;20137;-48
2023/09/21 20:10:29;;;;;;;18.25;5.60;;;;;;;23.26;51.95;99461.91;15568184;28;20053;-48
2023/09/21 20:18:03;;;;;;;8.35;5.38;;;;;;;22.46;53.94;99438.78;15573945;28;20050;-47
2023/09/21 20:25:39;;;;;;;14.73;5.10;;;;;;;22.94;53.06;99446.03;15569522;28;20045;-48
2023/09/21 20:33:12;;;;;;;9.02;5.70;;;;;;;22.64;53.86;99429.47;15563366;28;20100;-47
2023/09/21 20:40:48;;;;;;;6.50;4.55;;;;;;;22.36;54.35;99413.38;15580462;28;20045;-48
2023/09/21 20:48:21;;;;;;;10.93;5.72;;;;;;;22.13;55.16;99423.63;15578348;28;20045;-48
2023/09/21 20:55:57;;;;;;;9.90;5.82;;;;;;;21.94;56.00;99419.56;15580904;28;20442;-46
2023/09/21 21:03:32;;;;;;;10.98;6.00;;;;;;;21.44;57.56;99411.66;15586389;28;20128;-45
2023/09/21 21:11:07;;;;;;;12.23;6.43;;;;;;;21.06;58.68;99407.44;15553942;28;20065;-45
2023/09/21 21:18:41;;;;;;;10.52;6.20;;;;;;;21.52;57.27;99419.91;15551543;28;20050;-49
2023/09/21 21:26:16;;;;;;;9.88;5.85;;;;;;;21.36;58.14;99424.19;15580032;28;20041;-48
2023/09/21 21:33:49;;;;;;;14.75;5.82;;;;;;;21.32;57.93;99399.44;15577485;28;20052;-46
2023/09/21 21:41:24;;;;;;;7.18;5.47;;;;;;;20.98;58.81;99394.53;15577722;28;20057;-46
2023/09/21 21:48:58;;;;;;;11.32;6.20;;;;;;;20.82;59.81;99376.97;15560910;28;20461;-48
2023/09/21 21:56:33;;;;;;;10.18;5.60;;;;;;;20.88;59.73;99371.06;15558712;28;20537;-45
2023/09/21 22:04:07;;;;;;;9.25;5.60;;;;;;;21.09;59.20;99348.72;15539225;28;20099;-47
2023/09/21 22:11:41;;;;;;;13.85;6.38;;;;;;;20.88;59.54;99351.97;15558421;28;20092;-44
2023/09/21 22:19:15;;;;;;;9.07;5.95;;;;;;;20.90;59.90;99332.59;15557346;28;20046;-49
2023/09/21 22:26:50;;;;;;;11.55;6.45;;;;;;;20.56;60.85;99325.81;15557768;28;20091;-46
2023/09/21 22:34:23;;;;;;;9.45;6.30;;;;;;;20.46;61.38;99326.03;15523443;28;20073;-48
2023/09/21 22:41:57;;;;;;;11.20;6.70;;;;;;;20.12;62.63;99330.09;15556432;28;20128;-45
2023/09/21 22:49:30;;;;;;;10.85;6.05;;;;;;;20.68;60.86;99321.72;15556855;28;20410;-44
2023/09/21 22:57:05;;;;;;;9.90;6.50;;;;;;;20.35;61.80;99333.66;15555231;28;20409;-47
2023/09/21 23:04:39;;;;;;;13.07;7.18;;;;;;;20.32;61.96;99319.81;15554657;28;20069;-48
2023/09/21 23:12:14;;;;;;;12.02;7.05;;;;;;;20.06;62.56;99331.34;15555128;28;20073;-48
2023/09/21 23:19:49;;;;;;;11.32;6.90;;;;;;;20.28;62.39;99327.81;15554044;28;20041;-45
2023/09/21 23:27:23;;;;;;;10.95;7.00;;;;;;;20.18;62.32;99344.41;15553798;28;20050;-46
2023/09/21 23:34:56;;;;;;;10.68;7.47;;;;;;;19.91;62.87;99342.59;15553971;28;20453;-44
2023/09/21 23:42:32;;;;;;;12.02;8.00;;;;;;;19.90;62.97;99345.59;15553784;28;20042;-50
2023/09/21 23:50:09;;;;;;;10.93;7.28;;;;;;;20.28;62.17;99346.88;15553346;28;20054;-45
2023/09/21 23:57:45;;;;;;;11.93;8.20;;;;;;;19.64;64.02;99335.25;15535967;28;20566;-46
